PWSweather.com
Personal Weather Stations
Station Observations
KNVELKO7
Elko, NV 89801

Elko, NV 89801

Lat: 40.963233, Lon: -115.592836

Elevation: 5230

Station Type: WS-2812

High Low Average
Temperature 67.9°F19.9°F 29.7°F-1.3°F 44.5°F6.9°F
Dew Point 54.7°F12.6°F 26.5°F-3.1°F 38.1°F3.4°F
Winds 6.5 mph 10.5 mph Calm Calm 2.1 mph 3.4 mph
Wind Gusts 7.6 mph12.2 mph -- 3.2 mph5.1 mph
Humidity 91% 56% 79%
Pressure 30.42 in1030.10 in 30.29 in1025.70 in -
Precipitation 0.00 in0.00 in - -
Hour Temp Dew Point Humidity Winds Wind Gusts Pressure Precip Precip Rate Daily Precip Total
12:03 AM 37.1°F2.8°C 32.7°F0.4°C 84% 3.5 mph 5.6 kmh 4.3 mph6.9 kmh 30.36 in1028.1 mb 0.00 in0.0 mm 0.00 in0.0 mm 0.00 in0.0 mm
12:08 AM 36.9°F2.7°C 32.5°F0.3°C 84% 1.8 mph 2.9 kmh 4.3 mph6.9 kmh 30.36 in1028.1 mb 0.00 in0.0 mm 0.00 in0.0 mm 0.00 in0.0 mm
12:13 AM 36.5°F2.5°C 32.1°F0.1°C 84% Calm Calm 2.5 mph4.0 kmh 30.36 in1028.1 mb 0.00 in0.0 mm 0.00 in0.0 mm 0.00 in0.0 mm
12:18 AM 36.4°F2.4°C 32.0°F0.0°C 84% Calm Calm 1.8 mph2.9 kmh 30.36 in1028.1 mb 0.00 in0.0 mm 0.00 in0.0 mm 0.00 in0.0 mm
12:23 AM 36.0°F2.2°C 31.6°F-0.2°C 84% Calm Calm 1.3 mph2.1 kmh 30.36 in1028.1 mb 0.00 in0.0 mm 0.00 in0.0 mm 0.00 in0.0 mm
12:28 AM 36.0°F2.2°C 31.9°F-0.1°C 85% Calm Calm 1.3 mph2.1 kmh 30.36 in1028.1 mb 0.00 in0.0 mm 0.00 in0.0 mm 0.00 in0.0 mm
12:33 AM 36.2°F2.3°C 32.0°F0.0°C 85% Calm Calm -- 30.36 in1028.1 mb 0.00 in0.0 mm 0.00 in0.0 mm 0.00 in0.0 mm
12:38 AM 36.2°F2.3°C 32.0°F0.0°C 85% 2.9 mph NE4.7 kmh NE 3.1 mph5.0 kmh 30.36 in1028.1 mb 0.00 in0.0 mm 0.00 in0.0 mm 0.00 in0.0 mm
12:43 AM 36.4°F2.4°C 32.2°F0.1°C 85% 4.3 mph NE6.9 kmh NE 4.3 mph6.9 kmh 30.36 in1028.1 mb 0.00 in0.0 mm 0.00 in0.0 mm 0.00 in0.0 mm
12:48 AM 36.2°F2.3°C 32.0°F0.0°C 85% 1.1 mph E1.8 kmh E 4.3 mph6.9 kmh 30.36 in1028.1 mb 0.00 in0.0 mm 0.00 in0.0 mm 0.00 in0.0 mm
12:53 AM 35.8°F2.1°C 31.7°F-0.2°C 85% 0.4 mph E0.6 kmh E 3.1 mph5.0 kmh 30.36 in1028.1 mb 0.00 in0.0 mm 0.00 in0.0 mm 0.00 in0.0 mm
12:58 AM 35.6°F2.0°C 31.2°F-0.4°C 84% Calm Calm 1.1 mph1.8 kmh 30.36 in1028.1 mb 0.00 in0.0 mm 0.00 in0.0 mm 0.00 in0.0 mm
01:04 AM 35.5°F1.9°C 31.1°F-0.5°C 84% Calm Calm -- 30.36 in1028.1 mb 0.00 in0.0 mm 0.00 in0.0 mm 0.00 in0.0 mm
01:09 AM 35.3°F1.8°C 31.1°F-0.5°C 85% 1.0 mph E1.6 kmh E 1.1 mph1.8 kmh 30.36 in1028.1 mb 0.00 in0.0 mm 0.00 in0.0 mm 0.00 in0.0 mm
01:13 AM 35.1°F1.7°C 31.0°F-0.6°C 85% 0.6 mph N1.0 kmh N 1.1 mph1.8 kmh 30.36 in1028.1 mb 0.00 in0.0 mm 0.00 in0.0 mm 0.00 in0.0 mm
01:18 AM 34.9°F1.6°C 30.8°F-0.7°C 85% 2.3 mph NE3.7 kmh NE 2.5 mph4.0 kmh 30.36 in1028.1 mb 0.00 in0.0 mm 0.00 in0.0 mm 0.00 in0.0 mm
01:23 AM 34.9°F1.6°C 30.8°F-0.7°C 85% 0.4 mph 0.6 kmh 2.5 mph4.0 kmh 30.36 in1028.1 mb 0.00 in0.0 mm 0.00 in0.0 mm 0.00 in0.0 mm
01:28 AM 34.6°F1.4°C 30.4°F-0.9°C 85% Calm Calm 1.6 mph2.6 kmh 30.37 in1028.4 mb 0.00 in0.0 mm 0.00 in0.0 mm 0.00 in0.0 mm
01:33 AM 34.6°F1.4°C 30.4°F-0.9°C 85% Calm Calm 0.4 mph0.6 kmh 30.37 in1028.4 mb 0.00 in0.0 mm 0.00 in0.0 mm 0.00 in0.0 mm
01:38 AM 34.4°F1.3°C 30.2°F-1.0°C 85% Calm Calm -- 30.37 in1028.4 mb 0.00 in0.0 mm 0.00 in0.0 mm 0.00 in0.0 mm
01:43 AM 34.2°F1.2°C 30.1°F-1.1°C 85% 1.2 mph NE1.9 kmh NE 1.3 mph2.1 kmh 30.37 in1028.4 mb 0.00 in0.0 mm 0.00 in0.0 mm 0.00 in0.0 mm
01:48 AM 34.4°F1.3°C 30.2°F-1.0°C 85% 1.6 mph 2.6 kmh 1.8 mph2.9 kmh 30.37 in1028.4 mb 0.00 in0.0 mm 0.00 in0.0 mm 0.00 in0.0 mm
01:53 AM 34.4°F1.3°C 30.2°F-1.0°C 85% Calm Calm 1.8 mph2.9 kmh 30.37 in1028.4 mb 0.00 in0.0 mm 0.00 in0.0 mm 0.00 in0.0 mm
01:58 AM 34.2°F1.2°C 30.1°F-1.1°C 85% 1.4 mph 2.3 kmh 2.0 mph3.2 kmh 30.37 in1028.4 mb 0.00 in0.0 mm 0.00 in0.0 mm 0.00 in0.0 mm
02:04 AM 34.0°F1.1°C 30.2°F-1.0°C 86% 1.1 mph NNE1.8 kmh NNE 2.0 mph3.2 kmh 30.37 in1028.4 mb 0.00 in0.0 mm 0.00 in0.0 mm 0.00 in0.0 mm
02:09 AM 34.0°F1.1°C 30.2°F-1.0°C 86% 3.1 mph NNE5.0 kmh NNE 3.1 mph5.0 kmh 30.37 in1028.4 mb 0.00 in0.0 mm 0.00 in0.0 mm 0.00 in0.0 mm
02:14 AM 33.8°F1.0°C 30.0°F-1.1°C 86% 2.3 mph ENE3.7 kmh ENE 3.1 mph5.0 kmh 30.37 in1028.4 mb 0.00 in0.0 mm 0.00 in0.0 mm 0.00 in0.0 mm
02:19 AM 33.8°F1.0°C 30.0°F-1.1°C 86% 1.3 mph ENE2.1 kmh ENE 2.5 mph4.0 kmh 30.37 in1028.4 mb 0.00 in0.0 mm 0.00 in0.0 mm 0.00 in0.0 mm
02:24 AM 33.7°F0.9°C 29.8°F-1.2°C 86% 2.0 mph NNE3.2 kmh NNE 2.2 mph3.5 kmh 30.37 in1028.4 mb 0.00 in0.0 mm 0.00 in0.0 mm 0.00 in0.0 mm
02:29 AM 33.5°F0.8°C 29.7°F-1.3°C 86% Calm Calm 2.2 mph3.5 kmh 30.37 in1028.4 mb 0.00 in0.0 mm 0.00 in0.0 mm 0.00 in0.0 mm
02:34 AM 33.1°F0.6°C 29.3°F-1.5°C 86% 0.8 mph NE1.3 kmh NE 1.8 mph2.9 kmh 30.37 in1028.4 mb 0.00 in0.0 mm 0.00 in0.0 mm 0.00 in0.0 mm
02:39 AM 32.8°F0.4°C 29.0°F-1.7°C 86% Calm Calm 1.1 mph1.8 kmh 30.37 in1028.4 mb 0.00 in0.0 mm 0.00 in0.0 mm 0.00 in0.0 mm
02:44 AM 32.6°F0.3°C 28.9°F-1.7°C 86% 0.4 mph NE0.6 kmh NE 0.7 mph1.1 kmh 30.36 in1028.1 mb 0.00 in0.0 mm 0.00 in0.0 mm 0.00 in0.0 mm
02:49 AM 32.4°F0.2°C 28.7°F-1.8°C 86% 1.6 mph NE2.6 kmh NE 1.8 mph2.9 kmh 30.37 in1028.4 mb 0.00 in0.0 mm 0.00 in0.0 mm 0.00 in0.0 mm
02:54 AM 32.2°F0.1°C 28.5°F-1.9°C 86% 1.1 mph NNE1.8 kmh NNE 2.2 mph3.5 kmh 30.36 in1028.1 mb 0.00 in0.0 mm 0.00 in0.0 mm 0.00 in0.0 mm
02:59 AM 31.9°F-0.1°C 28.2°F-2.1°C 86% 1.4 mph ENE2.3 kmh ENE 2.2 mph3.5 kmh 30.36 in1028.1 mb 0.00 in0.0 mm 0.00 in0.0 mm 0.00 in0.0 mm
03:04 AM 31.7°F-0.2°C 28.0°F-2.2°C 86% 1.8 mph E2.9 kmh E 2.0 mph3.2 kmh 30.36 in1028.1 mb 0.00 in0.0 mm 0.00 in0.0 mm 0.00 in0.0 mm
03:09 AM 31.5°F-0.3°C 27.8°F-2.3°C 86% Calm Calm 2.0 mph3.2 kmh 30.36 in1028.1 mb 0.00 in0.0 mm 0.00 in0.0 mm 0.00 in0.0 mm
03:14 AM 31.5°F-0.3°C 27.8°F-2.3°C 86% 0.2 mph ESE0.3 kmh ESE 1.8 mph2.9 kmh 30.36 in1028.1 mb 0.00 in0.0 mm 0.00 in0.0 mm 0.00 in0.0 mm
03:19 AM 31.5°F-0.3°C 27.8°F-2.3°C 86% 0.2 mph ESE0.3 kmh ESE 1.1 mph1.8 kmh 30.36 in1028.1 mb 0.00 in0.0 mm 0.00 in0.0 mm 0.00 in0.0 mm
03:24 AM 31.3°F-0.4°C 27.6°F-2.4°C 86% 2.6 mph 4.2 kmh 3.4 mph5.5 kmh 30.37 in1028.4 mb 0.00 in0.0 mm 0.00 in0.0 mm 0.00 in0.0 mm
03:29 AM 31.1°F-0.5°C 27.5°F-2.5°C 86% 3.2 mph N5.1 kmh N 4.7 mph7.6 kmh 30.36 in1028.1 mb 0.00 in0.0 mm 0.00 in0.0 mm 0.00 in0.0 mm
03:34 AM 31.3°F-0.4°C 27.6°F-2.4°C 86% 2.2 mph N3.5 kmh N 4.7 mph7.6 kmh 30.36 in1028.1 mb 0.00 in0.0 mm 0.00 in0.0 mm 0.00 in0.0 mm
03:39 AM 31.3°F-0.4°C 27.6°F-2.4°C 86% 2.5 mph NE4.0 kmh NE 3.8 mph6.1 kmh 30.36 in1028.1 mb 0.00 in0.0 mm 0.00 in0.0 mm 0.00 in0.0 mm
03:44 AM 31.1°F-0.5°C 27.5°F-2.5°C 86% 2.8 mph ENE4.5 kmh ENE 3.4 mph5.5 kmh 30.36 in1028.1 mb 0.00 in0.0 mm 0.00 in0.0 mm 0.00 in0.0 mm
03:49 AM 31.3°F-0.4°C 27.9°F-2.3°C 87% 2.4 mph ENE3.9 kmh ENE 3.4 mph5.5 kmh 30.36 in1028.1 mb 0.00 in0.0 mm 0.00 in0.0 mm 0.00 in0.0 mm
03:54 AM 31.3°F-0.4°C 27.9°F-2.3°C 87% 2.6 mph NE4.2 kmh NE 3.4 mph5.5 kmh 30.36 in1028.1 mb 0.00 in0.0 mm 0.00 in0.0 mm 0.00 in0.0 mm
03:59 AM 31.1°F-0.5°C 27.5°F-2.5°C 86% 1.5 mph ENE2.4 kmh ENE 2.9 mph4.7 kmh 30.36 in1028.1 mb 0.00 in0.0 mm 0.00 in0.0 mm 0.00 in0.0 mm
04:04 AM 31.0°F-0.6°C 27.5°F-2.5°C 87% 2.2 mph ENE3.5 kmh ENE 2.5 mph4.0 kmh 30.36 in1028.1 mb 0.00 in0.0 mm 0.00 in0.0 mm 0.00 in0.0 mm
04:09 AM 30.8°F-0.7°C 27.4°F-2.6°C 87% 3.4 mph 5.5 kmh 3.4 mph5.5 kmh 30.37 in1028.4 mb 0.00 in0.0 mm 0.00 in0.0 mm 0.00 in0.0 mm
04:14 AM 30.6°F-0.8°C 27.2°F-2.7°C 87% 1.2 mph 1.9 kmh 3.4 mph5.5 kmh 30.36 in1028.1 mb 0.00 in0.0 mm 0.00 in0.0 mm 0.00 in0.0 mm
04:19 AM 30.4°F-0.9°C 27.0°F-2.8°C 87% 1.9 mph 3.1 kmh 3.4 mph5.5 kmh 30.36 in1028.1 mb 0.00 in0.0 mm 0.00 in0.0 mm 0.00 in0.0 mm
04:24 AM 30.6°F-0.8°C 27.2°F-2.7°C 87% 3.5 mph N5.6 kmh N 4.3 mph6.9 kmh 30.36 in1028.1 mb 0.00 in0.0 mm 0.00 in0.0 mm 0.00 in0.0 mm
04:29 AM 30.6°F-0.8°C 27.2°F-2.7°C 87% 1.9 mph N3.1 kmh N 4.3 mph6.9 kmh 30.36 in1028.1 mb 0.00 in0.0 mm 0.00 in0.0 mm 0.00 in0.0 mm
04:34 AM 30.8°F-0.7°C 27.4°F-2.6°C 87% 2.0 mph 3.2 kmh 2.7 mph4.3 kmh 30.36 in1028.1 mb 0.00 in0.0 mm 0.00 in0.0 mm 0.00 in0.0 mm
04:39 AM 31.0°F-0.6°C 27.5°F-2.5°C 87% 2.5 mph ENE4.0 kmh ENE 2.9 mph4.7 kmh 30.37 in1028.4 mb 0.00 in0.0 mm 0.00 in0.0 mm 0.00 in0.0 mm
04:44 AM 31.1°F-0.5°C 27.7°F-2.4°C 87% 2.1 mph ENE3.4 kmh ENE 2.9 mph4.7 kmh 30.37 in1028.4 mb 0.00 in0.0 mm 0.00 in0.0 mm 0.00 in0.0 mm
04:49 AM 31.3°F-0.4°C 27.9°F-2.3°C 87% 2.6 mph NE4.2 kmh NE 4.0 mph6.4 kmh 30.37 in1028.4 mb 0.00 in0.0 mm 0.00 in0.0 mm 0.00 in0.0 mm
04:54 AM 31.3°F-0.4°C 27.9°F-2.3°C 87% 3.3 mph NE5.3 kmh NE 4.0 mph6.4 kmh 30.37 in1028.4 mb 0.00 in0.0 mm 0.00 in0.0 mm 0.00 in0.0 mm
05:00 AM 31.3°F-0.4°C 27.9°F-2.3°C 87% 3.7 mph NE6.0 kmh NE 4.0 mph6.4 kmh 30.37 in1028.4 mb 0.00 in0.0 mm 0.00 in0.0 mm 0.00 in0.0 mm
05:05 AM 30.8°F-0.7°C 27.4°F-2.6°C 87% 3.4 mph NE5.5 kmh NE 4.0 mph6.4 kmh 30.37 in1028.4 mb 0.00 in0.0 mm 0.00 in0.0 mm 0.00 in0.0 mm
05:10 AM 31.0°F-0.6°C 27.5°F-2.5°C 87% 4.3 mph ENE6.9 kmh ENE 4.7 mph7.6 kmh 30.37 in1028.4 mb 0.00 in0.0 mm 0.00 in0.0 mm 0.00 in0.0 mm
05:15 AM 31.0°F-0.6°C 27.9°F-2.3°C 88% 3.3 mph ENE5.3 kmh ENE 4.7 mph7.6 kmh 30.37 in1028.4 mb 0.00 in0.0 mm 0.00 in0.0 mm 0.00 in0.0 mm
05:20 AM 31.0°F-0.6°C 27.9°F-2.3°C 88% 3.7 mph ENE6.0 kmh ENE 4.7 mph7.6 kmh 30.38 in1028.8 mb 0.00 in0.0 mm 0.00 in0.0 mm 0.00 in0.0 mm
05:25 AM 31.0°F-0.6°C 27.9°F-2.3°C 88% 3.8 mph E6.1 kmh E 4.7 mph7.6 kmh 30.38 in1028.8 mb 0.00 in0.0 mm 0.00 in0.0 mm 0.00 in0.0 mm
05:31 AM 31.3°F-0.4°C 28.3°F-2.1°C 88% 0.2 mph NE0.3 kmh NE 3.8 mph6.1 kmh 30.38 in1028.8 mb 0.00 in0.0 mm 0.00 in0.0 mm 0.00 in0.0 mm
05:36 AM 31.7°F-0.2°C 28.6°F-1.9°C 88% 2.0 mph ENE3.2 kmh ENE 3.1 mph5.0 kmh 30.38 in1028.8 mb 0.00 in0.0 mm 0.00 in0.0 mm 0.00 in0.0 mm
05:41 AM 31.9°F-0.1°C 28.8°F-1.8°C 88% 2.5 mph E4.0 kmh E 2.9 mph4.7 kmh 30.38 in1028.8 mb 0.00 in0.0 mm 0.00 in0.0 mm 0.00 in0.0 mm
05:46 AM 32.0°F0.0°C 29.0°F-1.7°C 88% 2.5 mph ENE4.0 kmh ENE 2.9 mph4.7 kmh 30.38 in1028.8 mb 0.00 in0.0 mm 0.00 in0.0 mm 0.00 in0.0 mm
05:51 AM 32.2°F0.1°C 29.1°F-1.6°C 88% 3.9 mph E6.3 kmh E 4.0 mph6.4 kmh 30.38 in1028.8 mb 0.00 in0.0 mm 0.00 in0.0 mm 0.00 in0.0 mm
05:56 AM 32.2°F0.1°C 29.1°F-1.6°C 88% 3.9 mph E6.3 kmh E 4.3 mph6.9 kmh 30.38 in1028.8 mb 0.00 in0.0 mm 0.00 in0.0 mm 0.00 in0.0 mm
06:01 AM 32.0°F0.0°C 29.0°F-1.7°C 88% 3.7 mph E6.0 kmh E 4.3 mph6.9 kmh 30.38 in1028.8 mb 0.00 in0.0 mm 0.00 in0.0 mm 0.00 in0.0 mm
06:06 AM 32.0°F0.0°C 29.0°F-1.7°C 88% 3.8 mph E6.1 kmh E 4.7 mph7.6 kmh 30.38 in1028.8 mb 0.00 in0.0 mm 0.00 in0.0 mm 0.00 in0.0 mm
06:11 AM 32.0°F0.0°C 29.0°F-1.7°C 88% 2.7 mph ENE4.3 kmh ENE 4.7 mph7.6 kmh 30.38 in1028.8 mb 0.00 in0.0 mm 0.00 in0.0 mm 0.00 in0.0 mm
06:16 AM 32.0°F0.0°C 29.0°F-1.7°C 88% 1.9 mph E3.1 kmh E 2.7 mph4.3 kmh 30.38 in1028.8 mb 0.00 in0.0 mm 0.00 in0.0 mm 0.00 in0.0 mm
06:21 AM 32.0°F0.0°C 29.0°F-1.7°C 88% 0.2 mph E0.3 kmh E 2.5 mph4.0 kmh 30.39 in1029.1 mb 0.00 in0.0 mm 0.00 in0.0 mm 0.00 in0.0 mm
06:26 AM 31.9°F-0.1°C 28.8°F-1.8°C 88% Calm Calm 2.0 mph3.2 kmh 30.39 in1029.1 mb 0.00 in0.0 mm 0.00 in0.0 mm 0.00 in0.0 mm
06:31 AM 31.5°F-0.3°C 28.5°F-1.9°C 88% Calm Calm 1.3 mph2.1 kmh 30.39 in1029.1 mb 0.00 in0.0 mm 0.00 in0.0 mm 0.00 in0.0 mm
06:37 AM 31.3°F-0.4°C 28.3°F-2.1°C 88% Calm Calm 1.1 mph1.8 kmh 30.39 in1029.1 mb 0.00 in0.0 mm 0.00 in0.0 mm 0.00 in0.0 mm
06:42 AM 31.0°F-0.6°C 27.9°F-2.3°C 88% 1.8 mph 2.9 kmh 1.8 mph2.9 kmh 30.39 in1029.1 mb 0.00 in0.0 mm 0.00 in0.0 mm 0.00 in0.0 mm
06:47 AM 30.6°F-0.8°C 27.6°F-2.4°C 88% 2.0 mph 3.2 kmh 2.7 mph4.3 kmh 30.40 in1029.5 mb 0.00 in0.0 mm 0.00 in0.0 mm 0.00 in0.0 mm
06:52 AM 30.6°F-0.8°C 27.6°F-2.4°C 88% 3.1 mph 5.0 kmh 3.4 mph5.5 kmh 30.40 in1029.5 mb 0.00 in0.0 mm 0.00 in0.0 mm 0.00 in0.0 mm
06:57 AM 30.2°F-1.0°C 27.2°F-2.7°C 88% 3.5 mph 5.6 kmh 3.8 mph6.1 kmh 30.40 in1029.5 mb 0.00 in0.0 mm 0.00 in0.0 mm 0.00 in0.0 mm
07:02 AM 30.1°F-1.1°C 26.6°F-3.0°C 87% 1.5 mph 2.4 kmh 3.8 mph6.1 kmh 30.40 in1029.5 mb 0.00 in0.0 mm 0.00 in0.0 mm 0.00 in0.0 mm
07:07 AM 29.9°F-1.2°C 26.5°F-3.1°C 87% 2.0 mph 3.2 kmh 3.4 mph5.5 kmh 30.40 in1029.5 mb 0.00 in0.0 mm 0.00 in0.0 mm 0.00 in0.0 mm
07:12 AM 29.9°F-1.2°C 26.8°F-2.9°C 88% 2.0 mph 3.2 kmh 2.2 mph3.5 kmh 30.40 in1029.5 mb 0.00 in0.0 mm 0.00 in0.0 mm 0.00 in0.0 mm
07:17 AM 29.7°F-1.3°C 26.7°F-2.9°C 88% 1.8 mph 2.9 kmh 2.5 mph4.0 kmh 30.40 in1029.5 mb 0.00 in0.0 mm 0.00 in0.0 mm 0.00 in0.0 mm
07:22 AM 29.7°F-1.3°C 26.7°F-2.9°C 88% 1.5 mph 2.4 kmh 2.5 mph4.0 kmh 30.41 in1029.8 mb 0.00 in0.0 mm 0.00 in0.0 mm 0.00 in0.0 mm
07:27 AM 29.7°F-1.3°C 26.7°F-2.9°C 88% 1.5 mph 2.4 kmh 2.0 mph3.2 kmh 30.41 in1029.8 mb 0.00 in0.0 mm 0.00 in0.0 mm 0.00 in0.0 mm
07:32 AM 29.9°F-1.2°C 26.8°F-2.9°C 88% 1.2 mph 1.9 kmh 2.2 mph3.5 kmh 30.41 in1029.8 mb 0.00 in0.0 mm 0.00 in0.0 mm 0.00 in0.0 mm
07:37 AM 30.1°F-1.1°C 27.0°F-2.8°C 88% 1.4 mph 2.3 kmh 2.2 mph3.5 kmh 30.41 in1029.8 mb 0.00 in0.0 mm 0.00 in0.0 mm 0.00 in0.0 mm
07:42 AM 30.6°F-0.8°C 27.8°F-2.3°C 89% 2.3 mph 3.7 kmh 3.4 mph5.5 kmh 30.41 in1029.8 mb 0.00 in0.0 mm 0.00 in0.0 mm 0.00 in0.0 mm
07:47 AM 31.0°F-0.6°C 28.2°F-2.1°C 89% 3.1 mph N5.0 kmh N 3.8 mph6.1 kmh 30.41 in1029.8 mb 0.00 in0.0 mm 0.00 in0.0 mm 0.00 in0.0 mm
07:52 AM 31.3°F-0.4°C 28.5°F-1.9°C 89% 2.6 mph 4.2 kmh 3.8 mph6.1 kmh 30.41 in1029.8 mb 0.00 in0.0 mm 0.00 in0.0 mm 0.00 in0.0 mm
07:57 AM 31.9°F-0.1°C 29.1°F-1.6°C 89% 3.7 mph 6.0 kmh 4.0 mph6.4 kmh 30.41 in1029.8 mb 0.00 in0.0 mm 0.00 in0.0 mm 0.00 in0.0 mm
08:03 AM 32.4°F0.2°C 29.5°F-1.4°C 89% 3.9 mph 6.3 kmh 4.7 mph7.6 kmh 30.41 in1029.8 mb 0.00 in0.0 mm 0.00 in0.0 mm 0.00 in0.0 mm
08:08 AM 32.9°F0.5°C 30.1°F-1.1°C 89% 4.8 mph 7.7 kmh 4.9 mph7.9 kmh 30.42 in1030.1 mb 0.00 in0.0 mm 0.00 in0.0 mm 0.00 in0.0 mm
08:13 AM 33.7°F0.9°C 30.7°F-0.7°C 89% 4.6 mph 7.4 kmh 4.9 mph7.9 kmh 30.42 in1030.1 mb 0.00 in0.0 mm 0.00 in0.0 mm 0.00 in0.0 mm
08:18 AM 34.2°F1.2°C 31.2°F-0.4°C 89% 4.2 mph NNE6.8 kmh NNE 4.9 mph7.9 kmh 30.41 in1029.8 mb 0.00 in0.0 mm 0.00 in0.0 mm 0.00 in0.0 mm
08:23 AM 35.1°F1.7°C 32.1°F0.1°C 89% 4.2 mph N6.8 kmh N 4.7 mph7.6 kmh 30.42 in1030.1 mb 0.00 in0.0 mm 0.00 in0.0 mm 0.00 in0.0 mm
08:28 AM 35.8°F2.1°C 32.9°F0.5°C 89% 3.0 mph NE4.8 kmh NE 4.7 mph7.6 kmh 30.42 in1030.1 mb 0.00 in0.0 mm 0.00 in0.0 mm 0.00 in0.0 mm
08:33 AM 36.2°F2.3°C 33.2°F0.7°C 89% 2.3 mph E3.7 kmh E 3.8 mph6.1 kmh 30.41 in1029.8 mb 0.00 in0.0 mm 0.00 in0.0 mm 0.00 in0.0 mm
08:38 AM 36.7°F2.6°C 33.8°F1.0°C 89% 2.3 mph NE3.7 kmh NE 3.6 mph5.8 kmh 30.41 in1029.8 mb 0.00 in0.0 mm 0.00 in0.0 mm 0.00 in0.0 mm
08:43 AM 37.3°F2.9°C 34.3°F1.3°C 89% 3.3 mph ENE5.3 kmh ENE 3.6 mph5.8 kmh 30.41 in1029.8 mb 0.00 in0.0 mm 0.00 in0.0 mm 0.00 in0.0 mm
08:48 AM 38.0°F3.3°C 35.3°F1.8°C 90% 3.7 mph ENE6.0 kmh ENE 4.3 mph6.9 kmh 30.41 in1029.8 mb 0.00 in0.0 mm 0.00 in0.0 mm 0.00 in0.0 mm
08:53 AM 38.5°F3.6°C 35.8°F2.1°C 90% 2.4 mph E3.9 kmh E 4.3 mph6.9 kmh 30.41 in1029.8 mb 0.00 in0.0 mm 0.00 in0.0 mm 0.00 in0.0 mm
08:58 AM 39.1°F3.9°C 36.4°F2.4°C 90% 4.0 mph NE6.4 kmh NE 4.5 mph7.2 kmh 30.41 in1029.8 mb 0.00 in0.0 mm 0.00 in0.0 mm 0.00 in0.0 mm
09:04 AM 39.6°F4.2°C 36.9°F2.7°C 90% 3.5 mph E5.6 kmh E 4.9 mph7.9 kmh 30.41 in1029.8 mb 0.00 in0.0 mm 0.00 in0.0 mm 0.00 in0.0 mm
09:09 AM 40.0°F4.4°C 37.3°F2.9°C 90% 5.4 mph ENE8.7 kmh ENE 5.4 mph8.7 kmh 30.41 in1029.8 mb 0.00 in0.0 mm 0.00 in0.0 mm 0.00 in0.0 mm
09:14 AM 40.5°F4.7°C 37.8°F3.2°C 90% 4.5 mph E7.2 kmh E 5.4 mph8.7 kmh 30.41 in1029.8 mb 0.00 in0.0 mm 0.00 in0.0 mm 0.00 in0.0 mm
09:19 AM 40.9°F4.9°C 38.2°F3.4°C 90% 3.9 mph E6.3 kmh E 5.1 mph8.2 kmh 30.41 in1029.8 mb 0.00 in0.0 mm 0.00 in0.0 mm 0.00 in0.0 mm
09:24 AM 41.4°F5.2°C 38.7°F3.7°C 90% 5.2 mph NE8.4 kmh NE 6.3 mph10.1 kmh 30.41 in1029.8 mb 0.00 in0.0 mm 0.00 in0.0 mm 0.00 in0.0 mm
09:29 AM 41.8°F5.4°C 39.1°F3.9°C 90% 3.6 mph E5.8 kmh E 6.3 mph10.1 kmh 30.41 in1029.8 mb 0.00 in0.0 mm 0.00 in0.0 mm 0.00 in0.0 mm
09:34 AM 42.1°F5.6°C 39.4°F4.1°C 90% 2.0 mph E3.2 kmh E 3.8 mph6.1 kmh 30.41 in1029.8 mb 0.00 in0.0 mm 0.00 in0.0 mm 0.00 in0.0 mm
09:39 AM 42.3°F5.7°C 39.6°F4.2°C 90% 2.5 mph E4.0 kmh E 3.4 mph5.5 kmh 30.41 in1029.8 mb 0.00 in0.0 mm 0.00 in0.0 mm 0.00 in0.0 mm
09:44 AM 42.7°F5.9°C 40.0°F4.4°C 90% 3.4 mph NE5.5 kmh NE 4.3 mph6.9 kmh 30.41 in1029.8 mb 0.00 in0.0 mm 0.00 in0.0 mm 0.00 in0.0 mm
09:49 AM 43.0°F6.1°C 40.3°F4.6°C 90% 3.1 mph E5.0 kmh E 4.3 mph6.9 kmh 30.41 in1029.8 mb 0.00 in0.0 mm 0.00 in0.0 mm 0.00 in0.0 mm
09:54 AM 43.6°F6.4°C 40.9°F4.9°C 90% 3.7 mph ENE6.0 kmh ENE 4.3 mph6.9 kmh 30.41 in1029.8 mb 0.00 in0.0 mm 0.00 in0.0 mm 0.00 in0.0 mm
10:00 AM 43.7°F6.5°C 41.0°F5.0°C 90% 3.7 mph NE6.0 kmh NE 4.5 mph7.2 kmh 30.41 in1029.8 mb 0.00 in0.0 mm 0.00 in0.0 mm 0.00 in0.0 mm
10:05 AM 44.1°F6.7°C 41.4°F5.2°C 90% 1.7 mph E2.7 kmh E 4.5 mph7.2 kmh 30.41 in1029.8 mb 0.00 in0.0 mm 0.00 in0.0 mm 0.00 in0.0 mm
10:10 AM 44.8°F7.1°C 42.4°F5.8°C 91% 0.8 mph ENE1.3 kmh ENE 3.4 mph5.5 kmh 30.41 in1029.8 mb 0.00 in0.0 mm 0.00 in0.0 mm 0.00 in0.0 mm
10:15 AM 45.5°F7.5°C 43.1°F6.2°C 91% 1.8 mph ESE2.9 kmh ESE 3.4 mph5.5 kmh 30.41 in1029.8 mb 0.00 in0.0 mm 0.00 in0.0 mm 0.00 in0.0 mm
10:20 AM 46.3°F7.9°C 43.8°F6.6°C 91% 2.5 mph E4.0 kmh E 2.9 mph4.7 kmh 30.41 in1029.8 mb 0.00 in0.0 mm 0.00 in0.0 mm 0.00 in0.0 mm
10:25 AM 46.8°F8.2°C 44.4°F6.9°C 91% 0.8 mph ESE1.3 kmh ESE 2.9 mph4.7 kmh 30.40 in1029.5 mb 0.00 in0.0 mm 0.00 in0.0 mm 0.00 in0.0 mm
10:30 AM 47.5°F8.6°C 45.1°F7.3°C 91% 2.7 mph E4.3 kmh E 3.4 mph5.5 kmh 30.40 in1029.5 mb 0.00 in0.0 mm 0.00 in0.0 mm 0.00 in0.0 mm
10:35 AM 48.2°F9.0°C 45.8°F7.7°C 91% 1.5 mph E2.4 kmh E 3.4 mph5.5 kmh 30.40 in1029.5 mb 0.00 in0.0 mm 0.00 in0.0 mm 0.00 in0.0 mm
10:40 AM 49.0°F9.4°C 46.4°F8.0°C 91% 2.7 mph E4.3 kmh E 3.1 mph5.0 kmh 30.40 in1029.5 mb 0.00 in0.0 mm 0.00 in0.0 mm 0.00 in0.0 mm
10:45 AM 49.9°F9.9°C 47.3°F8.5°C 91% 2.9 mph NE4.7 kmh NE 4.7 mph7.6 kmh 30.40 in1029.5 mb 0.00 in0.0 mm 0.00 in0.0 mm 0.00 in0.0 mm
10:50 AM 50.8°F10.4°C 47.9°F8.8°C 90% 1.5 mph ENE2.4 kmh ENE 4.7 mph7.6 kmh 30.40 in1029.5 mb 0.00 in0.0 mm 0.00 in0.0 mm 0.00 in0.0 mm
10:55 AM 51.7°F10.9°C 48.5°F9.2°C 89% 2.5 mph E4.0 kmh E 2.9 mph4.7 kmh 30.40 in1029.5 mb 0.00 in0.0 mm 0.00 in0.0 mm 0.00 in0.0 mm
11:00 AM 52.4°F11.3°C 49.5°F9.7°C 90% 1.0 mph SE1.6 kmh SE 2.9 mph4.7 kmh 30.39 in1029.1 mb 0.00 in0.0 mm 0.00 in0.0 mm 0.00 in0.0 mm
11:05 AM 53.5°F11.9°C 50.3°F10.2°C 89% 0.6 mph NNE1.0 kmh NNE 2.9 mph4.7 kmh 30.39 in1029.1 mb 0.00 in0.0 mm 0.00 in0.0 mm 0.00 in0.0 mm
11:10 AM 54.4°F12.4°C 50.9°F10.5°C 88% 2.9 mph E4.7 kmh E 4.0 mph6.4 kmh 30.39 in1029.1 mb 0.00 in0.0 mm 0.00 in0.0 mm 0.00 in0.0 mm
11:15 AM 55.3°F12.9°C 51.1°F10.6°C 86% 2.8 mph E4.5 kmh E 4.0 mph6.4 kmh 30.39 in1029.1 mb 0.00 in0.0 mm 0.00 in0.0 mm 0.00 in0.0 mm
11:20 AM 56.0°F13.3°C 51.5°F10.8°C 85% 3.0 mph SE4.8 kmh SE 3.4 mph5.5 kmh 30.39 in1029.1 mb 0.00 in0.0 mm 0.00 in0.0 mm 0.00 in0.0 mm
11:25 AM 56.9°F13.8°C 52.0°F11.1°C 84% 2.6 mph SE4.2 kmh SE 3.6 mph5.8 kmh 30.38 in1028.8 mb 0.00 in0.0 mm 0.00 in0.0 mm 0.00 in0.0 mm
11:30 AM 57.6°F14.2°C 52.1°F11.2°C 82% 2.4 mph ESE3.9 kmh ESE 4.0 mph6.4 kmh 30.38 in1028.8 mb 0.00 in0.0 mm 0.00 in0.0 mm 0.00 in0.0 mm
11:35 AM 58.1°F14.5°C 52.4°F11.3°C 81% 0.2 mph ESE0.3 kmh ESE 4.0 mph6.4 kmh 30.38 in1028.8 mb 0.00 in0.0 mm 0.00 in0.0 mm 0.00 in0.0 mm
11:40 AM 58.7°F14.8°C 52.6°F11.4°C 80% 1.5 mph NW2.4 kmh NW 2.5 mph4.0 kmh 30.38 in1028.8 mb 0.00 in0.0 mm 0.00 in0.0 mm 0.00 in0.0 mm
11:45 AM 58.7°F14.8°C 52.2°F11.2°C 79% 3.3 mph NE5.3 kmh NE 3.8 mph6.1 kmh 30.38 in1028.8 mb 0.00 in0.0 mm 0.00 in0.0 mm 0.00 in0.0 mm
11:50 AM 59.2°F15.1°C 52.7°F11.5°C 79% Calm Calm 3.8 mph6.1 kmh 30.37 in1028.4 mb 0.00 in0.0 mm 0.00 in0.0 mm 0.00 in0.0 mm
11:55 AM 60.1°F15.6°C 53.6°F12.0°C 79% 1.3 mph ESE2.1 kmh ESE 2.2 mph3.5 kmh 30.37 in1028.4 mb 0.00 in0.0 mm 0.00 in0.0 mm 0.00 in0.0 mm
12:00 PM 60.8°F16.0°C 54.7°F12.6°C 80% 3.6 mph NNE5.8 kmh NNE 4.5 mph7.2 kmh 30.37 in1028.4 mb 0.00 in0.0 mm 0.00 in0.0 mm 0.00 in0.0 mm
12:05 PM 60.8°F16.0°C 53.6°F12.0°C 77% 1.5 mph NNE2.4 kmh NNE 4.5 mph7.2 kmh 30.37 in1028.4 mb 0.00 in0.0 mm 0.00 in0.0 mm 0.00 in0.0 mm
12:10 PM 61.0°F16.1°C 53.1°F11.7°C 75% 0.7 mph NW1.1 kmh NW 1.8 mph2.9 kmh 30.37 in1028.4 mb 0.00 in0.0 mm 0.00 in0.0 mm 0.00 in0.0 mm
12:15 PM 61.4°F16.3°C 53.0°F11.7°C 74% 1.2 mph NE1.9 kmh NE 1.6 mph2.6 kmh 30.36 in1028.1 mb 0.00 in0.0 mm 0.00 in0.0 mm 0.00 in0.0 mm
12:20 PM 61.7°F16.5°C 53.0°F11.7°C 73% 3.0 mph ENE4.8 kmh ENE 4.0 mph6.4 kmh 30.36 in1028.1 mb 0.00 in0.0 mm 0.00 in0.0 mm 0.00 in0.0 mm
12:25 PM 62.1°F16.7°C 53.0°F11.7°C 72% 0.4 mph WNW0.6 kmh WNW 4.0 mph6.4 kmh 30.36 in1028.1 mb 0.00 in0.0 mm 0.00 in0.0 mm 0.00 in0.0 mm
12:30 PM 62.3°F16.8°C 53.1°F11.7°C 72% 2.3 mph NNE3.7 kmh NNE 2.9 mph4.7 kmh 30.36 in1028.1 mb 0.00 in0.0 mm 0.00 in0.0 mm 0.00 in0.0 mm
12:35 PM 62.5°F16.9°C 52.6°F11.4°C 70% 1.8 mph ENE2.9 kmh ENE 3.4 mph5.5 kmh 30.36 in1028.1 mb 0.00 in0.0 mm 0.00 in0.0 mm 0.00 in0.0 mm
12:40 PM 63.0°F17.2°C 53.1°F11.7°C 70% 1.5 mph SE2.4 kmh SE 3.4 mph5.5 kmh 30.36 in1028.1 mb 0.00 in0.0 mm 0.00 in0.0 mm 0.00 in0.0 mm
12:45 PM 63.9°F17.7°C 52.8°F11.6°C 67% 2.8 mph SSE4.5 kmh SSE 3.6 mph5.8 kmh 30.36 in1028.1 mb 0.00 in0.0 mm 0.00 in0.0 mm 0.00 in0.0 mm
12:50 PM 64.4°F18.0°C 53.3°F11.8°C 67% 0.8 mph S1.3 kmh S 3.6 mph5.8 kmh 30.36 in1028.1 mb 0.00 in0.0 mm 0.00 in0.0 mm 0.00 in0.0 mm
12:55 PM 64.4°F18.0°C 52.8°F11.6°C 66% 0.3 mph SSE0.5 kmh SSE 2.7 mph4.3 kmh 30.36 in1028.1 mb 0.00 in0.0 mm 0.00 in0.0 mm 0.00 in0.0 mm
01:01 PM 64.8°F18.2°C 53.2°F11.8°C 66% 1.3 mph SE2.1 kmh SE 1.8 mph2.9 kmh 30.36 in1028.1 mb 0.00 in0.0 mm 0.00 in0.0 mm 0.00 in0.0 mm
01:06 PM 65.2°F18.4°C 53.1°F11.7°C 65% 1.1 mph S1.8 kmh S 1.8 mph2.9 kmh 30.36 in1028.1 mb 0.00 in0.0 mm 0.00 in0.0 mm 0.00 in0.0 mm
01:11 PM 65.5°F18.6°C 53.4°F11.9°C 65% 1.9 mph WSW3.1 kmh WSW 2.9 mph4.7 kmh 30.36 in1028.1 mb 0.00 in0.0 mm 0.00 in0.0 mm 0.00 in0.0 mm
01:16 PM 65.5°F18.6°C 52.6°F11.4°C 63% 2.5 mph WSW4.0 kmh WSW 2.9 mph4.7 kmh 30.35 in1027.8 mb 0.00 in0.0 mm 0.00 in0.0 mm 0.00 in0.0 mm
01:20 PM 65.2°F18.4°C 52.2°F11.2°C 63% 0.8 mph WSW1.3 kmh WSW 3.4 mph5.5 kmh 30.35 in1027.8 mb 0.00 in0.0 mm 0.00 in0.0 mm 0.00 in0.0 mm
01:25 PM 65.3°F18.5°C 52.4°F11.3°C 63% 0.3 mph ESE0.5 kmh ESE 3.4 mph5.5 kmh 30.35 in1027.8 mb 0.00 in0.0 mm 0.00 in0.0 mm 0.00 in0.0 mm
01:30 PM 65.9°F18.8°C 52.1°F11.2°C 61% 0.4 mph SE0.6 kmh SE 0.4 mph0.6 kmh 30.35 in1027.8 mb 0.00 in0.0 mm 0.00 in0.0 mm 0.00 in0.0 mm
01:35 PM 66.2°F19.0°C 52.5°F11.4°C 61% 0.8 mph E1.3 kmh E 2.7 mph4.3 kmh 30.35 in1027.8 mb 0.00 in0.0 mm 0.00 in0.0 mm 0.00 in0.0 mm
01:40 PM 66.4°F19.1°C 52.6°F11.4°C 61% 0.3 mph ESE0.5 kmh ESE 2.7 mph4.3 kmh 30.35 in1027.8 mb 0.00 in0.0 mm 0.00 in0.0 mm 0.00 in0.0 mm
01:45 PM 66.4°F19.1°C 52.2°F11.2°C 60% 1.2 mph SE1.9 kmh SE 2.7 mph4.3 kmh 30.35 in1027.8 mb 0.00 in0.0 mm 0.00 in0.0 mm 0.00 in0.0 mm
01:50 PM 66.8°F19.3°C 52.0°F11.1°C 59% 0.9 mph SSE1.4 kmh SSE 2.7 mph4.3 kmh 30.35 in1027.8 mb 0.00 in0.0 mm 0.00 in0.0 mm 0.00 in0.0 mm
01:55 PM 67.3°F19.6°C 52.5°F11.4°C 59% 1.5 mph S2.4 kmh S 2.0 mph3.2 kmh 30.34 in1027.4 mb 0.00 in0.0 mm 0.00 in0.0 mm 0.00 in0.0 mm
02:01 PM 67.7°F19.8°C 52.8°F11.6°C 59% Calm Calm 2.0 mph3.2 kmh 30.34 in1027.4 mb 0.00 in0.0 mm 0.00 in0.0 mm 0.00 in0.0 mm
02:06 PM 67.9°F19.9°C 52.5°F11.4°C 58% Calm Calm 1.6 mph2.6 kmh 30.34 in1027.4 mb 0.00 in0.0 mm 0.00 in0.0 mm 0.00 in0.0 mm
02:11 PM 67.5°F19.7°C 51.7°F10.9°C 57% Calm Calm 0.4 mph0.6 kmh 30.34 in1027.4 mb 0.00 in0.0 mm 0.00 in0.0 mm 0.00 in0.0 mm
02:16 PM 67.1°F19.5°C 51.4°F10.8°C 57% Calm Calm 0.4 mph0.6 kmh 30.34 in1027.4 mb 0.00 in0.0 mm 0.00 in0.0 mm 0.00 in0.0 mm
02:22 PM 67.1°F19.5°C 51.4°F10.8°C 57% Calm Calm 1.1 mph1.8 kmh 30.34 in1027.4 mb 0.00 in0.0 mm 0.00 in0.0 mm 0.00 in0.0 mm
02:27 PM 67.1°F19.5°C 50.9°F10.5°C 56% Calm Calm 0.2 mph0.3 kmh 30.34 in1027.4 mb 0.00 in0.0 mm 0.00 in0.0 mm 0.00 in0.0 mm
02:32 PM 67.1°F19.5°C 50.9°F10.5°C 56% 1.5 mph E2.4 kmh E 1.8 mph2.9 kmh 30.34 in1027.4 mb 0.00 in0.0 mm 0.00 in0.0 mm 0.00 in0.0 mm
02:37 PM 67.0°F19.4°C 50.8°F10.4°C 56% Calm Calm 1.8 mph2.9 kmh 30.34 in1027.4 mb 0.00 in0.0 mm 0.00 in0.0 mm 0.00 in0.0 mm
02:42 PM 67.0°F19.4°C 50.8°F10.4°C 56% 1.5 mph E2.4 kmh E 2.0 mph3.2 kmh 30.33 in1027.1 mb 0.00 in0.0 mm 0.00 in0.0 mm 0.00 in0.0 mm
02:47 PM 66.6°F19.2°C 50.4°F10.2°C 56% 0.8 mph E1.3 kmh E 2.0 mph3.2 kmh 30.33 in1027.1 mb 0.00 in0.0 mm 0.00 in0.0 mm 0.00 in0.0 mm
02:52 PM 66.6°F19.2°C 50.4°F10.2°C 56% Calm Calm 1.1 mph1.8 kmh 30.33 in1027.1 mb 0.00 in0.0 mm 0.00 in0.0 mm 0.00 in0.0 mm
02:57 PM 66.6°F19.2°C 50.4°F10.2°C 56% Calm Calm 0.7 mph1.1 kmh 30.33 in1027.1 mb 0.00 in0.0 mm 0.00 in0.0 mm 0.00 in0.0 mm
03:03 PM 66.6°F19.2°C 50.4°F10.2°C 56% 0.3 mph S0.5 kmh S 0.4 mph0.6 kmh 30.33 in1027.1 mb 0.00 in0.0 mm 0.00 in0.0 mm 0.00 in0.0 mm
03:08 PM 66.4°F19.1°C 50.2°F10.1°C 56% 0.4 mph S0.6 kmh S 0.4 mph0.6 kmh 30.34 in1027.4 mb 0.00 in0.0 mm 0.00 in0.0 mm 0.00 in0.0 mm
03:13 PM 66.2°F19.0°C 50.0°F10.0°C 56% Calm Calm 0.4 mph0.6 kmh 30.33 in1027.1 mb 0.00 in0.0 mm 0.00 in0.0 mm 0.00 in0.0 mm
03:18 PM 65.9°F18.8°C 49.7°F9.8°C 56% Calm Calm -- 30.33 in1027.1 mb 0.00 in0.0 mm 0.00 in0.0 mm 0.00 in0.0 mm
03:23 PM 65.5°F18.6°C 49.3°F9.6°C 56% Calm Calm -- 30.33 in1027.1 mb 0.00 in0.0 mm 0.00 in0.0 mm 0.00 in0.0 mm
03:28 PM 64.8°F18.2°C 48.6°F9.2°C 56% 1.9 mph NNE3.1 kmh NNE 2.0 mph3.2 kmh 30.33 in1027.1 mb 0.00 in0.0 mm 0.00 in0.0 mm 0.00 in0.0 mm
03:33 PM 63.7°F17.6°C 47.6°F8.7°C 56% 1.0 mph 1.6 kmh 2.5 mph4.0 kmh 30.33 in1027.1 mb 0.00 in0.0 mm 0.00 in0.0 mm 0.00 in0.0 mm
03:38 PM 62.5°F16.9°C 47.0°F8.3°C 57% 1.1 mph NE1.8 kmh NE 2.5 mph4.0 kmh 30.33 in1027.1 mb 0.00 in0.0 mm 0.00 in0.0 mm 0.00 in0.0 mm
03:43 PM 62.1°F16.7°C 46.6°F8.1°C 57% 0.7 mph NE1.1 kmh NE 2.0 mph3.2 kmh 30.33 in1027.1 mb 0.00 in0.0 mm 0.00 in0.0 mm 0.00 in0.0 mm
03:47 PM 61.7°F16.5°C 46.4°F8.0°C 57% 0.9 mph NNE1.4 kmh NNE 1.1 mph1.8 kmh 30.33 in1027.1 mb 0.00 in0.0 mm 0.00 in0.0 mm 0.00 in0.0 mm
03:52 PM 61.2°F16.2°C 46.4°F8.0°C 58% 3.2 mph NNE5.1 kmh NNE 3.6 mph5.8 kmh 30.33 in1027.1 mb 0.00 in0.0 mm 0.00 in0.0 mm 0.00 in0.0 mm
03:57 PM 60.3°F15.7°C 45.5°F7.5°C 58% 4.1 mph NNE6.6 kmh NNE 4.3 mph6.9 kmh 30.33 in1027.1 mb 0.00 in0.0 mm 0.00 in0.0 mm 0.00 in0.0 mm
04:03 PM 59.4°F15.2°C 45.1°F7.3°C 59% 3.4 mph NNE5.5 kmh NNE 4.3 mph6.9 kmh 30.33 in1027.1 mb 0.00 in0.0 mm 0.00 in0.0 mm 0.00 in0.0 mm
04:08 PM 58.7°F14.8°C 44.4°F6.9°C 59% 3.5 mph NNE5.6 kmh NNE 3.6 mph5.8 kmh 30.33 in1027.1 mb 0.00 in0.0 mm 0.00 in0.0 mm 0.00 in0.0 mm
04:13 PM 58.1°F14.5°C 43.9°F6.6°C 59% Calm Calm 3.6 mph5.8 kmh 30.33 in1027.1 mb 0.00 in0.0 mm 0.00 in0.0 mm 0.00 in0.0 mm
04:18 PM 57.6°F14.2°C 43.4°F6.3°C 59% Calm Calm 3.4 mph5.5 kmh 30.33 in1027.1 mb 0.00 in0.0 mm 0.00 in0.0 mm 0.00 in0.0 mm
04:23 PM 57.2°F14.0°C 43.6°F6.4°C 60% Calm Calm -- 30.33 in1027.1 mb 0.00 in0.0 mm 0.00 in0.0 mm 0.00 in0.0 mm
04:28 PM 56.5°F13.6°C 42.8°F6.0°C 60% Calm Calm -- 30.33 in1027.1 mb 0.00 in0.0 mm 0.00 in0.0 mm 0.00 in0.0 mm
04:33 PM 56.0°F13.3°C 42.3°F5.7°C 60% 0.4 mph NNE0.6 kmh NNE 0.7 mph1.1 kmh 30.33 in1027.1 mb 0.00 in0.0 mm 0.00 in0.0 mm 0.00 in0.0 mm
04:38 PM 55.3°F12.9°C 42.0°F5.6°C 61% 1.5 mph NNE2.4 kmh NNE 1.8 mph2.9 kmh 30.33 in1027.1 mb 0.00 in0.0 mm 0.00 in0.0 mm 0.00 in0.0 mm
04:43 PM 54.7°F12.6°C 42.0°F5.6°C 62% 0.8 mph NE1.3 kmh NE 1.8 mph2.9 kmh 30.33 in1027.1 mb 0.00 in0.0 mm 0.00 in0.0 mm 0.00 in0.0 mm
04:48 PM 54.2°F12.3°C 41.9°F5.5°C 63% 5.6 mph N9.0 kmh N 5.6 mph9.0 kmh 30.33 in1027.1 mb 0.00 in0.0 mm 0.00 in0.0 mm 0.00 in0.0 mm
04:53 PM 52.9°F11.6°C 41.1°F5.1°C 64% 6.2 mph 10.0 kmh 6.7 mph10.8 kmh 30.33 in1027.1 mb 0.00 in0.0 mm 0.00 in0.0 mm 0.00 in0.0 mm
04:58 PM 52.2°F11.2°C 40.8°F4.9°C 65% 4.3 mph NNE6.9 kmh NNE 6.7 mph10.8 kmh 30.33 in1027.1 mb 0.00 in0.0 mm 0.00 in0.0 mm 0.00 in0.0 mm
05:04 PM 51.8°F11.0°C 40.9°F4.9°C 66% 2.3 mph 3.7 kmh 6.5 mph10.5 kmh 30.33 in1027.1 mb 0.00 in0.0 mm 0.00 in0.0 mm 0.00 in0.0 mm
05:09 PM 51.8°F11.0°C 41.2°F5.1°C 67% 2.0 mph NW3.2 kmh NW 3.4 mph5.5 kmh 30.33 in1027.1 mb 0.00 in0.0 mm 0.00 in0.0 mm 0.00 in0.0 mm
05:14 PM 51.7°F10.9°C 41.0°F5.0°C 67% 1.2 mph 1.9 kmh 2.0 mph3.2 kmh 30.33 in1027.1 mb 0.00 in0.0 mm 0.00 in0.0 mm 0.00 in0.0 mm
05:19 PM 51.3°F10.7°C 40.7°F4.8°C 67% 2.5 mph 4.0 kmh 2.7 mph4.3 kmh 30.33 in1027.1 mb 0.00 in0.0 mm 0.00 in0.0 mm 0.00 in0.0 mm
05:23 PM 50.9°F10.5°C 40.8°F4.9°C 68% 5.0 mph 8.0 kmh 5.1 mph8.2 kmh 30.33 in1027.1 mb 0.00 in0.0 mm 0.00 in0.0 mm 0.00 in0.0 mm
05:28 PM 50.4°F10.2°C 40.2°F4.6°C 68% 3.7 mph N6.0 kmh N 5.4 mph8.7 kmh 30.33 in1027.1 mb 0.00 in0.0 mm 0.00 in0.0 mm 0.00 in0.0 mm
05:33 PM 50.0°F10.0°C 39.9°F4.4°C 68% 3.0 mph NNE4.8 kmh NNE 5.4 mph8.7 kmh 30.33 in1027.1 mb 0.00 in0.0 mm 0.00 in0.0 mm 0.00 in0.0 mm
05:38 PM 49.7°F9.8°C 40.0°F4.4°C 69% 1.8 mph N2.9 kmh N 3.4 mph5.5 kmh 30.33 in1027.1 mb 0.00 in0.0 mm 0.00 in0.0 mm 0.00 in0.0 mm
05:43 PM 49.5°F9.7°C 39.8°F4.3°C 69% 2.3 mph 3.7 kmh 2.7 mph4.3 kmh 30.33 in1027.1 mb 0.00 in0.0 mm 0.00 in0.0 mm 0.00 in0.0 mm
05:48 PM 49.3°F9.6°C 40.0°F4.4°C 70% 4.3 mph 6.9 kmh 4.7 mph7.6 kmh 30.33 in1027.1 mb 0.00 in0.0 mm 0.00 in0.0 mm 0.00 in0.0 mm
05:53 PM 48.8°F9.3°C 39.4°F4.1°C 70% 3.0 mph 4.8 kmh 4.7 mph7.6 kmh 30.33 in1027.1 mb 0.00 in0.0 mm 0.00 in0.0 mm 0.00 in0.0 mm
05:58 PM 48.4°F9.1°C 39.4°F4.1°C 71% 2.5 mph N4.0 kmh N 4.0 mph6.4 kmh 30.33 in1027.1 mb 0.00 in0.0 mm 0.00 in0.0 mm 0.00 in0.0 mm
06:04 PM 48.1°F8.9°C 39.1°F3.9°C 71% 3.0 mph N4.8 kmh N 3.1 mph5.0 kmh 30.33 in1027.1 mb 0.00 in0.0 mm 0.00 in0.0 mm 0.00 in0.0 mm
06:09 PM 48.1°F8.9°C 39.4°F4.1°C 72% 0.7 mph NNW1.1 kmh NNW 3.4 mph5.5 kmh 30.33 in1027.1 mb 0.00 in0.0 mm 0.00 in0.0 mm 0.00 in0.0 mm
06:14 PM 47.9°F8.8°C 39.2°F4.0°C 72% Calm Calm 3.4 mph5.5 kmh 30.33 in1027.1 mb 0.00 in0.0 mm 0.00 in0.0 mm 0.00 in0.0 mm
06:19 PM 47.9°F8.8°C 39.6°F4.2°C 73% 3.3 mph E5.3 kmh E 3.4 mph5.5 kmh 30.33 in1027.1 mb 0.00 in0.0 mm 0.00 in0.0 mm 0.00 in0.0 mm
06:24 PM 47.9°F8.8°C 39.6°F4.2°C 73% 3.6 mph E5.8 kmh E 4.3 mph6.9 kmh 30.33 in1027.1 mb 0.00 in0.0 mm 0.00 in0.0 mm 0.00 in0.0 mm
06:29 PM 47.9°F8.8°C 40.0°F4.4°C 74% 0.7 mph E1.1 kmh E 4.3 mph6.9 kmh 30.33 in1027.1 mb 0.00 in0.0 mm 0.00 in0.0 mm 0.00 in0.0 mm
06:34 PM 47.7°F8.7°C 39.8°F4.3°C 74% 0.4 mph NNW0.6 kmh NNW 2.5 mph4.0 kmh 30.33 in1027.1 mb 0.00 in0.0 mm 0.00 in0.0 mm 0.00 in0.0 mm
06:39 PM 47.5°F8.6°C 39.6°F4.2°C 74% 1.4 mph W2.3 kmh W 1.6 mph2.6 kmh 30.33 in1027.1 mb 0.00 in0.0 mm 0.00 in0.0 mm 0.00 in0.0 mm
06:44 PM 47.0°F8.3°C 39.2°F4.0°C 74% 2.7 mph 4.3 kmh 3.4 mph5.5 kmh 30.33 in1027.1 mb 0.00 in0.0 mm 0.00 in0.0 mm 0.00 in0.0 mm
06:49 PM 46.4°F8.0°C 38.6°F3.7°C 74% 4.9 mph N7.9 kmh N 5.1 mph8.2 kmh 30.33 in1027.1 mb 0.00 in0.0 mm 0.00 in0.0 mm 0.00 in0.0 mm
06:54 PM 46.1°F7.8°C 38.3°F3.5°C 74% 3.9 mph N6.3 kmh N 5.1 mph8.2 kmh 30.33 in1027.1 mb 0.00 in0.0 mm 0.00 in0.0 mm 0.00 in0.0 mm
06:59 PM 46.3°F7.9°C 39.2°F4.0°C 76% 3.7 mph NNE6.0 kmh NNE 5.6 mph9.0 kmh 30.33 in1027.1 mb 0.00 in0.0 mm 0.00 in0.0 mm 0.00 in0.0 mm
07:04 PM 46.3°F7.9°C 39.2°F4.0°C 76% 4.2 mph 6.8 kmh 5.6 mph9.0 kmh 30.34 in1027.4 mb 0.00 in0.0 mm 0.00 in0.0 mm 0.00 in0.0 mm
07:09 PM 45.5°F7.5°C 38.4°F3.6°C 76% 6.2 mph N10.0 kmh N 6.7 mph10.8 kmh 30.33 in1027.1 mb 0.00 in0.0 mm 0.00 in0.0 mm 0.00 in0.0 mm
07:14 PM 45.4°F7.4°C 38.6°F3.7°C 77% 5.4 mph NNE8.7 kmh NNE 7.6 mph12.2 kmh 30.33 in1027.1 mb 0.00 in0.0 mm 0.00 in0.0 mm 0.00 in0.0 mm
07:19 PM 45.4°F7.4°C 38.6°F3.7°C 77% 5.1 mph N8.2 kmh N 7.6 mph12.2 kmh 30.33 in1027.1 mb 0.00 in0.0 mm 0.00 in0.0 mm 0.00 in0.0 mm
07:24 PM 45.0°F7.2°C 38.3°F3.5°C 77% 1.8 mph SW2.9 kmh SW 5.6 mph9.0 kmh 30.33 in1027.1 mb 0.00 in0.0 mm 0.00 in0.0 mm 0.00 in0.0 mm
07:29 PM 44.6°F7.0°C 37.9°F3.3°C 77% Calm Calm 3.6 mph5.8 kmh 30.34 in1027.4 mb 0.00 in0.0 mm 0.00 in0.0 mm 0.00 in0.0 mm
07:34 PM 44.3°F6.8°C 37.5°F3.1°C 77% 0.9 mph SSE1.4 kmh SSE 2.2 mph3.5 kmh 30.34 in1027.4 mb 0.00 in0.0 mm 0.00 in0.0 mm 0.00 in0.0 mm
07:39 PM 43.9°F6.6°C 37.2°F2.9°C 77% Calm Calm 1.6 mph2.6 kmh 30.34 in1027.4 mb 0.00 in0.0 mm 0.00 in0.0 mm 0.00 in0.0 mm
07:44 PM 43.6°F6.4°C 36.8°F2.7°C 77% Calm Calm 1.6 mph2.6 kmh 30.34 in1027.4 mb 0.00 in0.0 mm 0.00 in0.0 mm 0.00 in0.0 mm
07:49 PM 43.2°F6.2°C 36.5°F2.5°C 77% 1.4 mph SE2.3 kmh SE 1.6 mph2.6 kmh 30.33 in1027.1 mb 0.00 in0.0 mm 0.00 in0.0 mm 0.00 in0.0 mm
07:54 PM 43.2°F6.2°C 36.5°F2.5°C 77% Calm Calm 2.0 mph3.2 kmh 30.33 in1027.1 mb 0.00 in0.0 mm 0.00 in0.0 mm 0.00 in0.0 mm
07:59 PM 43.0°F6.1°C 36.3°F2.4°C 77% 1.6 mph NNE2.6 kmh NNE 2.0 mph3.2 kmh 30.34 in1027.4 mb 0.00 in0.0 mm 0.00 in0.0 mm 0.00 in0.0 mm
08:04 PM 43.0°F6.1°C 36.6°F2.6°C 78% 0.8 mph NE1.3 kmh NE 1.6 mph2.6 kmh 30.34 in1027.4 mb 0.00 in0.0 mm 0.00 in0.0 mm 0.00 in0.0 mm
08:09 PM 43.2°F6.2°C 36.8°F2.7°C 78% 2.1 mph NE3.4 kmh NE 2.5 mph4.0 kmh 30.33 in1027.1 mb 0.00 in0.0 mm 0.00 in0.0 mm 0.00 in0.0 mm
08:14 PM 43.2°F6.2°C 37.1°F2.8°C 79% 2.1 mph NE3.4 kmh NE 3.4 mph5.5 kmh 30.33 in1027.1 mb 0.00 in0.0 mm 0.00 in0.0 mm 0.00 in0.0 mm
08:19 PM 43.2°F6.2°C 37.1°F2.8°C 79% 2.3 mph NE3.7 kmh NE 3.4 mph5.5 kmh 30.33 in1027.1 mb 0.00 in0.0 mm 0.00 in0.0 mm 0.00 in0.0 mm
08:24 PM 43.4°F6.3°C 37.3°F2.9°C 79% 1.7 mph ENE2.7 kmh ENE 2.7 mph4.3 kmh 30.33 in1027.1 mb 0.00 in0.0 mm 0.00 in0.0 mm 0.00 in0.0 mm
08:29 PM 43.4°F6.3°C 37.3°F2.9°C 79% 1.3 mph ENE2.1 kmh ENE 2.2 mph3.5 kmh 30.33 in1027.1 mb 0.00 in0.0 mm 0.00 in0.0 mm 0.00 in0.0 mm
08:34 PM 43.4°F6.3°C 37.3°F2.9°C 79% 0.9 mph N1.4 kmh N 1.3 mph2.1 kmh 30.32 in1026.8 mb 0.00 in0.0 mm 0.00 in0.0 mm 0.00 in0.0 mm
08:39 PM 43.2°F6.2°C 37.1°F2.8°C 79% 3.2 mph 5.1 kmh 3.6 mph5.8 kmh 30.32 in1026.8 mb 0.00 in0.0 mm 0.00 in0.0 mm 0.00 in0.0 mm
08:44 PM 42.8°F6.0°C 36.7°F2.6°C 79% 1.8 mph 2.9 kmh 3.8 mph6.1 kmh 30.32 in1026.8 mb 0.00 in0.0 mm 0.00 in0.0 mm 0.00 in0.0 mm
08:49 PM 42.8°F6.0°C 36.7°F2.6°C 79% 4.3 mph 6.9 kmh 4.7 mph7.6 kmh 30.31 in1026.4 mb 0.00 in0.0 mm 0.00 in0.0 mm 0.00 in0.0 mm
08:54 PM 42.8°F6.0°C 37.1°F2.8°C 80% 2.2 mph E3.5 kmh E 5.6 mph9.0 kmh 30.32 in1026.8 mb 0.00 in0.0 mm 0.00 in0.0 mm 0.00 in0.0 mm
09:00 PM 42.7°F5.9°C 36.9°F2.7°C 80% 3.5 mph SE5.6 kmh SE 5.6 mph9.0 kmh 30.33 in1027.1 mb 0.00 in0.0 mm 0.00 in0.0 mm 0.00 in0.0 mm
09:05 PM 42.7°F5.9°C 36.9°F2.7°C 80% 2.3 mph ENE3.7 kmh ENE 3.6 mph5.8 kmh 30.33 in1027.1 mb 0.00 in0.0 mm 0.00 in0.0 mm 0.00 in0.0 mm
09:10 PM 42.5°F5.8°C 37.0°F2.8°C 81% 3.9 mph E6.3 kmh E 4.0 mph6.4 kmh 30.32 in1026.8 mb 0.00 in0.0 mm 0.00 in0.0 mm 0.00 in0.0 mm
09:15 PM 42.7°F5.9°C 37.2°F2.9°C 81% 3.3 mph ENE5.3 kmh ENE 4.0 mph6.4 kmh 30.32 in1026.8 mb 0.00 in0.0 mm 0.00 in0.0 mm 0.00 in0.0 mm
09:20 PM 42.7°F5.9°C 37.2°F2.9°C 81% 3.5 mph E5.6 kmh E 4.3 mph6.9 kmh 30.32 in1026.8 mb 0.00 in0.0 mm 0.00 in0.0 mm 0.00 in0.0 mm
09:25 PM 42.7°F5.9°C 37.2°F2.9°C 81% 1.3 mph ENE2.1 kmh ENE 4.3 mph6.9 kmh 30.32 in1026.8 mb 0.00 in0.0 mm 0.00 in0.0 mm 0.00 in0.0 mm
09:29 PM 42.7°F5.9°C 37.2°F2.9°C 81% 3.0 mph 4.8 kmh 3.6 mph5.8 kmh 30.32 in1026.8 mb 0.00 in0.0 mm 0.00 in0.0 mm 0.00 in0.0 mm
09:34 PM 42.5°F5.8°C 37.0°F2.8°C 81% 4.9 mph NE7.9 kmh NE 6.3 mph10.1 kmh 30.32 in1026.8 mb 0.00 in0.0 mm 0.00 in0.0 mm 0.00 in0.0 mm
09:39 PM 42.5°F5.8°C 37.0°F2.8°C 81% 4.6 mph NE7.4 kmh NE 6.3 mph10.1 kmh 30.32 in1026.8 mb 0.00 in0.0 mm 0.00 in0.0 mm 0.00 in0.0 mm
09:44 PM 42.5°F5.8°C 37.4°F3.0°C 82% 3.1 mph NNE5.0 kmh NNE 4.9 mph7.9 kmh 30.32 in1026.8 mb 0.00 in0.0 mm 0.00 in0.0 mm 0.00 in0.0 mm
09:49 PM 42.5°F5.8°C 37.4°F3.0°C 82% 3.2 mph NNE5.1 kmh NNE 4.7 mph7.6 kmh 30.32 in1026.8 mb 0.00 in0.0 mm 0.00 in0.0 mm 0.00 in0.0 mm
09:54 PM 42.5°F5.8°C 37.4°F3.0°C 82% 0.4 mph WNW0.6 kmh WNW 4.0 mph6.4 kmh 30.32 in1026.8 mb 0.00 in0.0 mm 0.00 in0.0 mm 0.00 in0.0 mm
10:00 PM 42.3°F5.7°C 37.2°F2.9°C 82% 0.8 mph N1.3 kmh N 1.1 mph1.8 kmh 30.31 in1026.4 mb 0.00 in0.0 mm 0.00 in0.0 mm 0.00 in0.0 mm
10:05 PM 42.1°F5.6°C 37.0°F2.8°C 82% Calm Calm 1.8 mph2.9 kmh 30.31 in1026.4 mb 0.00 in0.0 mm 0.00 in0.0 mm 0.00 in0.0 mm
10:10 PM 41.9°F5.5°C 37.1°F2.8°C 83% 1.5 mph N2.4 kmh N 1.8 mph2.9 kmh 30.32 in1026.8 mb 0.00 in0.0 mm 0.00 in0.0 mm 0.00 in0.0 mm
10:15 PM 41.8°F5.4°C 36.9°F2.7°C 83% 0.8 mph 1.3 kmh 1.6 mph2.6 kmh 30.32 in1026.8 mb 0.00 in0.0 mm 0.00 in0.0 mm 0.00 in0.0 mm
10:20 PM 41.8°F5.4°C 36.9°F2.7°C 83% Calm Calm 1.1 mph1.8 kmh 30.32 in1026.8 mb 0.00 in0.0 mm 0.00 in0.0 mm 0.00 in0.0 mm
10:25 PM 41.8°F5.4°C 36.9°F2.7°C 83% 0.9 mph NE1.4 kmh NE 1.1 mph1.8 kmh 30.32 in1026.8 mb 0.00 in0.0 mm 0.00 in0.0 mm 0.00 in0.0 mm
10:30 PM 41.8°F5.4°C 36.9°F2.7°C 83% 3.0 mph E4.8 kmh E 3.4 mph5.5 kmh 30.32 in1026.8 mb 0.00 in0.0 mm 0.00 in0.0 mm 0.00 in0.0 mm
10:35 PM 41.9°F5.5°C 37.1°F2.8°C 83% 3.7 mph E6.0 kmh E 4.0 mph6.4 kmh 30.31 in1026.4 mb 0.00 in0.0 mm 0.00 in0.0 mm 0.00 in0.0 mm
10:40 PM 42.1°F5.6°C 37.6°F3.1°C 84% 1.9 mph E3.1 kmh E 4.0 mph6.4 kmh 30.31 in1026.4 mb 0.00 in0.0 mm 0.00 in0.0 mm 0.00 in0.0 mm
10:45 PM 42.1°F5.6°C 37.6°F3.1°C 84% 2.8 mph E4.5 kmh E 3.8 mph6.1 kmh 30.31 in1026.4 mb 0.00 in0.0 mm 0.00 in0.0 mm 0.00 in0.0 mm
10:50 PM 42.1°F5.6°C 37.6°F3.1°C 84% 3.2 mph 5.1 kmh 3.8 mph6.1 kmh 30.31 in1026.4 mb 0.00 in0.0 mm 0.00 in0.0 mm 0.00 in0.0 mm
10:55 PM 42.1°F5.6°C 37.3°F2.9°C 83% 2.8 mph 4.5 kmh 4.0 mph6.4 kmh 30.31 in1026.4 mb 0.00 in0.0 mm 0.00 in0.0 mm 0.00 in0.0 mm
11:00 PM 41.9°F5.5°C 37.1°F2.8°C 83% 3.1 mph 5.0 kmh 4.0 mph6.4 kmh 30.30 in1026.1 mb 0.00 in0.0 mm 0.00 in0.0 mm 0.00 in0.0 mm
11:05 PM 41.8°F5.4°C 36.6°F2.6°C 82% 2.3 mph 3.7 kmh 3.4 mph5.5 kmh 30.31 in1026.4 mb 0.00 in0.0 mm 0.00 in0.0 mm 0.00 in0.0 mm
11:10 PM 41.4°F5.2°C 36.3°F2.4°C 82% 4.2 mph 6.8 kmh 4.3 mph6.9 kmh 30.31 in1026.4 mb 0.00 in0.0 mm 0.00 in0.0 mm 0.00 in0.0 mm
11:15 PM 41.4°F5.2°C 36.5°F2.5°C 83% 3.9 mph 6.3 kmh 4.7 mph7.6 kmh 30.30 in1026.1 mb 0.00 in0.0 mm 0.00 in0.0 mm 0.00 in0.0 mm
11:20 PM 41.4°F5.2°C 36.5°F2.5°C 83% 6.5 mph 10.5 kmh 6.7 mph10.8 kmh 30.30 in1026.1 mb 0.00 in0.0 mm 0.00 in0.0 mm 0.00 in0.0 mm
11:25 PM 41.4°F5.2°C 36.5°F2.5°C 83% 3.7 mph N6.0 kmh N 6.7 mph10.8 kmh 30.30 in1026.1 mb 0.00 in0.0 mm 0.00 in0.0 mm 0.00 in0.0 mm
11:30 PM 41.4°F5.2°C 36.5°F2.5°C 83% 2.5 mph N4.0 kmh N 5.6 mph9.0 kmh 30.30 in1026.1 mb 0.00 in0.0 mm 0.00 in0.0 mm 0.00 in0.0 mm
11:35 PM 41.4°F5.2°C 36.9°F2.7°C 84% 5.1 mph ENE8.2 kmh ENE 5.6 mph9.0 kmh 30.30 in1026.1 mb 0.00 in0.0 mm 0.00 in0.0 mm 0.00 in0.0 mm
11:40 PM 41.4°F5.2°C 36.9°F2.7°C 84% 5.5 mph ENE8.9 kmh ENE 5.6 mph9.0 kmh 30.29 in1025.7 mb 0.00 in0.0 mm 0.00 in0.0 mm 0.00 in0.0 mm
11:45 PM 41.6°F5.3°C 37.1°F2.8°C 84% 1.9 mph ENE3.1 kmh ENE 5.6 mph9.0 kmh 30.30 in1026.1 mb 0.00 in0.0 mm 0.00 in0.0 mm 0.00 in0.0 mm
11:50 PM 41.2°F5.1°C 36.7°F2.6°C 84% 3.3 mph NNW5.3 kmh NNW 4.9 mph7.9 kmh 30.30 in1026.1 mb 0.00 in0.0 mm 0.00 in0.0 mm 0.00 in0.0 mm
11:55 PM 40.7°F4.8°C 36.2°F2.3°C 84% 2.0 mph 3.2 kmh 3.4 mph5.5 kmh 30.30 in1026.1 mb 0.00 in0.0 mm 0.00 in0.0 mm 0.00 in0.0 mm